Terminal Aerodrome Forecast
Issued by NWS

Home | Current Version | Previous Version | Text Only | Print | Product List | Glossary On
Versions: 1 2 3 4 5 6 7 8 9 10 11 12 13 14 15 16
000
FTUS41 KLWX 231700
TAFMTN
TAF
KMTN 231739Z 2318/2418 32014G22KT P6SM OVC050
     FM240200 33010KT P6SM BKN050
     FM241500 32011G18KT P6SM SCT090=

USA.gov is the U.S. government's official web portal to all federal, state and local government web resources and services.